createdAt,value
2023-04-18T00:00:48.272Z,4.25
2023-04-18T00:03:17.485Z,3.70
2023-04-18T00:05:47.307Z,2.83
2023-04-18T00:08:15.007Z,7.12
2023-04-18T00:10:42.528Z,3.50
2023-04-18T00:13:10.255Z,3.67
2023-04-18T00:15:37.934Z,3.33
2023-04-18T00:18:05.814Z,4.90
2023-04-18T00:20:33.765Z,6.28
2023-04-18T00:23:01.951Z,5.12
2023-04-18T00:25:29.726Z,5.12
2023-04-18T00:27:58.517Z,5.00
2023-04-18T00:30:26.596Z,2.52
2023-04-18T00:32:54.468Z,2.98
2023-04-18T00:35:22.246Z,4.08
2023-04-18T00:37:50.458Z,4.92
2023-04-18T00:40:18.584Z,4.40
2023-04-18T00:42:46.326Z,7.08
2023-04-18T00:45:14.834Z,6.22
2023-04-18T00:47:42.576Z,4.62
2023-04-18T00:50:12.000Z,3.22
2023-04-18T00:52:40.652Z,3.42
2023-04-18T00:55:09.110Z,4.95
2023-04-18T00:57:37.248Z,5.15
2023-04-18T01:00:10.440Z,3.58
2023-04-18T01:02:39.327Z,4.92
2023-04-18T01:05:08.235Z,3.37
2023-04-18T01:07:39.718Z,2.45
2023-04-18T01:10:10.181Z,5.62
2023-04-18T01:12:38.073Z,4.60
2023-04-18T01:15:07.103Z,5.90
2023-04-18T01:17:35.788Z,4.10
2023-04-18T01:20:05.839Z,6.30
2023-04-18T01:22:34.201Z,3.45
2023-04-18T01:25:08.141Z,7.03
2023-04-18T01:27:35.728Z,7.30
2023-04-18T01:30:03.941Z,3.80
2023-04-18T01:32:31.635Z,4.10
2023-04-18T01:34:59.397Z,3.67
2023-04-18T01:37:27.533Z,5.60
2023-04-18T01:39:54.966Z,3.92
2023-04-18T01:42:22.710Z,3.40
2023-04-18T01:44:50.524Z,3.42
2023-04-18T01:47:18.267Z,4.47
2023-04-18T01:49:47.856Z,8.30
2023-04-18T01:52:16.796Z,5.40
2023-04-18T01:54:44.563Z,6.12
2023-04-18T01:57:13.435Z,5.10
2023-04-18T01:59:41.166Z,6.55
2023-04-18T02:02:10.820Z,6.87
2023-04-18T02:04:38.588Z,7.10
2023-04-18T02:07:06.221Z,7.70
2023-04-18T02:09:33.762Z,5.85
2023-04-18T02:12:02.247Z,5.78
2023-04-18T02:14:34.797Z,6.78
2023-04-18T02:17:02.609Z,4.92
2023-04-18T02:19:30.566Z,7.62
2023-04-18T02:21:58.137Z,6.47
2023-04-18T02:24:25.943Z,6.03
2023-04-18T02:26:53.542Z,5.33
2023-04-18T02:29:21.382Z,7.53
2023-04-18T02:31:49.115Z,5.03
2023-04-18T02:34:16.877Z,4.83
2023-04-18T02:36:44.596Z,7.17
2023-04-18T02:39:12.294Z,8.98
2023-04-18T02:41:40.014Z,8.28
2023-04-18T02:44:08.645Z,7.47
2023-04-18T02:46:38.066Z,8.45
2023-04-18T02:49:07.298Z,6.97
2023-04-18T02:51:35.188Z,7.15
2023-04-18T02:54:03.237Z,7.22
2023-04-18T02:56:32.978Z,4.50
2023-04-18T02:59:14.363Z,6.08
2023-04-18T03:01:49.571Z,5.67
2023-04-18T03:04:18.993Z,3.27
2023-04-18T03:06:49.657Z,3.35
2023-04-18T03:09:17.721Z,4.45
2023-04-18T03:11:47.448Z,5.42
2023-04-18T03:14:15.443Z,11.60
2023-04-18T03:16:53.880Z,8.20
2023-04-18T03:19:22.472Z,6.22
2023-04-18T03:21:50.891Z,9.13
2023-04-18T03:24:18.457Z,21.75
2023-04-18T03:26:47.926Z,14.68
2023-04-18T03:29:16.109Z,15.05
2023-04-18T03:31:44.888Z,10.88
2023-04-18T03:34:12.833Z,16.30
2023-04-18T03:36:40.864Z,22.45
2023-04-18T03:39:09.241Z,24.20
2023-04-18T03:41:36.984Z,16.23
2023-04-18T03:44:05.536Z,18.65
2023-04-18T03:46:35.368Z,9.20
2023-04-18T03:49:03.966Z,9.80
2023-04-18T03:51:37.177Z,9.80
2023-04-18T03:54:05.233Z,19.12
2023-04-18T03:56:33.151Z,20.30
2023-04-18T03:59:00.901Z,26.37
2023-04-18T04:01:28.750Z,19.10
2023-04-18T04:03:56.527Z,25.57
2023-04-18T04:06:24.593Z,20.90
2023-04-18T04:08:52.169Z,15.83
2023-04-18T04:11:22.240Z,14.70
2023-04-18T04:13:49.978Z,13.28
2023-04-18T04:16:19.489Z,28.27
2023-04-18T04:18:48.975Z,36.10
2023-04-18T04:21:17.594Z,31.52
2023-04-18T04:23:51.128Z,30.45
2023-04-18T04:26:27.237Z,32.13
2023-04-18T04:28:57.134Z,32.30
2023-04-18T04:31:26.566Z,39.38
2023-04-18T04:33:54.195Z,33.10
2023-04-18T04:36:24.328Z,37.10
2023-04-18T04:38:52.441Z,39.50
2023-04-18T04:41:22.418Z,42.93
2023-04-18T04:43:52.029Z,31.42
2023-04-18T04:46:22.674Z,27.67
2023-04-18T04:48:50.953Z,28.70
2023-04-18T04:51:19.575Z,26.80
2023-04-18T04:53:47.005Z,24.45
2023-04-18T04:56:14.471Z,25.15
2023-04-18T04:58:42.027Z,21.62
2023-04-18T05:01:17.518Z,18.50
2023-04-18T05:03:45.394Z,19.62
2023-04-18T05:06:13.780Z,16.75
2023-04-18T05:08:41.415Z,18.87
2023-04-18T05:11:09.032Z,17.27
2023-04-18T05:13:36.549Z,22.85
2023-04-18T05:16:04.916Z,23.95
2023-04-18T05:18:34.922Z,127.38
2023-04-18T05:21:02.378Z,52.85
2023-04-18T05:23:30.278Z,38.20
2023-04-18T05:25:57.710Z,32.15
2023-04-18T05:28:26.895Z,26.62
2023-04-18T05:30:56.492Z,24.07
2023-04-18T05:33:24.030Z,22.30
2023-04-18T05:36:09.510Z,22.35
2023-04-18T05:38:37.325Z,28.52
2023-04-18T05:41:05.181Z,36.60
2023-04-18T05:43:32.757Z,30.08
2023-04-18T05:46:00.403Z,26.85
2023-04-18T05:48:28.094Z,29.32
2023-04-18T05:50:55.700Z,18.95
2023-04-18T05:53:23.429Z,17.57
2023-04-18T05:55:51.259Z,13.40
2023-04-18T05:58:19.078Z,12.85
2023-04-18T06:00:47.876Z,12.93
2023-04-18T06:03:16.051Z,12.90
2023-04-18T06:05:44.425Z,18.48
2023-04-18T06:08:12.088Z,13.30
2023-04-18T06:10:39.598Z,9.83
2023-04-18T06:13:07.117Z,8.68
2023-04-18T06:15:35.583Z,13.35
2023-04-18T06:18:03.203Z,6.47
2023-04-18T06:20:30.705Z,14.15
2023-04-18T06:22:58.143Z,9.10
2023-04-18T06:25:25.969Z,11.28
2023-04-18T06:27:53.882Z,8.90
2023-04-18T06:30:21.696Z,7.87
2023-04-18T06:32:49.630Z,7.15
2023-04-18T06:35:17.456Z,8.58
2023-04-18T06:37:48.233Z,8.70
2023-04-18T06:40:16.101Z,7.05
2023-04-18T06:42:43.854Z,7.33
2023-04-18T06:45:12.155Z,8.50
2023-04-18T06:47:40.419Z,8.25
2023-04-18T06:50:09.364Z,6.83
2023-04-18T06:52:38.887Z,8.35
2023-04-18T06:55:08.740Z,10.40
2023-04-18T06:57:38.310Z,12.70
2023-04-18T07:00:07.222Z,7.92
2023-04-18T07:02:37.200Z,4.97
2023-04-18T07:05:06.329Z,7.80
2023-04-18T07:07:34.906Z,8.38
2023-04-18T07:10:02.516Z,6.37
2023-04-18T07:12:30.104Z,7.33
2023-04-18T07:14:57.771Z,5.22
2023-04-18T07:17:25.381Z,7.15
2023-04-18T07:19:52.948Z,6.15
